Time,TemperatureF,DewpointF,PressureIn,WindDirection,WindDirectionDegrees,WindSpeedMPH,WindSpeedGustMPH,Humidity,HourlyPrecipIn,Conditions,Clouds,dailyrainin,SoftwareType,DateUTC
2017-04-26 00:18:00,82.5,48.0,29.87,WNW,285,0.0,0.0,30,0.00,,,0.00,weatherlink.com 1.10,2017-04-25 21:18:00,
2017-04-26 00:33:00,82.5,48.0,29.87,West,272,0.0,0.0,30,0.00,,,0.00,weatherlink.com 1.10,2017-04-25 21:33:00,
2017-04-26 00:48:00,81.8,47.0,29.86,North,359,0.0,0.0,30,0.00,,,0.00,weatherlink.com 1.10,2017-04-25 21:48:00,
2017-04-26 01:03:00,81.5,47.0,29.87,West,274,0.0,0.0,30,0.00,,,0.00,weatherlink.com 1.10,2017-04-25 22:03:00,
2017-04-26 01:18:00,81.0,49.0,29.88,WSW,258,0.0,0.0,33,0.00,,,0.00,weatherlink.com 1.10,2017-04-25 22:18:00,
2017-04-26 01:33:00,80.5,49.0,29.89,SW,231,0.0,0.0,33,0.00,,,0.00,weatherlink.com 1.10,2017-04-25 22:33:00,
2017-04-26 01:48:00,79.9,49.0,29.89,WSW,249,0.0,0.0,34,0.00,,,0.00,weatherlink.com 1.10,2017-04-25 22:48:00,
2017-04-26 02:03:00,79.3,49.0,29.89,WNW,302,0.0,0.0,34,0.00,,,0.00,weatherlink.com 1.10,2017-04-25 23:03:00,
2017-04-26 02:18:00,78.8,49.0,29.89,West,262,0.0,0.0,35,0.00,,,0.00,weatherlink.com 1.10,2017-04-25 23:18:00,
2017-04-26 02:33:00,78.2,49.0,29.89,WNW,287,0.0,0.0,36,0.00,,,0.00,weatherlink.com 1.10,2017-04-25 23:33:00,
2017-04-26 02:48:00,77.6,49.0,29.89,WSW,257,0.0,0.0,36,0.00,,,0.00,weatherlink.com 1.10,2017-04-25 23:48:00,
2017-04-26 03:03:00,77.2,48.0,29.89,WNW,292,0.0,0.0,36,0.00,,,0.00,weatherlink.com 1.10,2017-04-26 00:03:00,
2017-04-26 03:18:00,76.8,49.0,29.89,NW,307,0.0,0.0,37,0.00,,,0.00,weatherlink.com 1.10,2017-04-26 00:18:00,
2017-04-26 03:33:00,76.6,48.0,29.90,WNW,289,0.0,0.0,37,0.00,,,0.00,weatherlink.com 1.10,2017-04-26 00:33:00,
2017-04-26 03:48:00,76.2,48.0,29.91,NW,308,0.0,0.0,37,0.00,,,0.00,weatherlink.com 1.10,2017-04-26 00:48:00,
2017-04-26 04:03:00,75.8,48.0,29.91,West,278,0.0,0.0,38,0.00,,,0.00,weatherlink.com 1.10,2017-04-26 01:03:00,
2017-04-26 04:18:00,75.6,48.0,29.91,WNW,289,0.0,0.0,38,0.00,,,0.00,weatherlink.com 1.10,2017-04-26 01:18:00,
2017-04-26 04:33:00,75.3,49.0,29.92,West,279,0.0,0.0,39,0.00,,,0.00,weatherlink.com 1.10,2017-04-26 01:33:00,
2017-04-26 04:48:00,75.2,47.0,29.94,North,359,0.0,0.0,37,0.00,,,0.00,weatherlink.com 1.10,2017-04-26 01:48:00,
2017-04-26 05:04:00,75.0,47.0,29.96,West,262,0.0,0.0,37,0.00,,,0.00,weatherlink.com 1.10,2017-04-26 02:04:00,
2017-04-26 05:19:00,75.0,46.0,29.97,West,272,0.0,0.0,36,0.00,,,0.00,weatherlink.com 1.10,2017-04-26 02:19:00,
2017-04-26 05:34:00,75.1,46.0,29.98,SW,229,0.0,0.0,36,0.00,,,0.00,weatherlink.com 1.10,2017-04-26 02:34:00,
2017-04-26 05:49:00,75.2,45.0,29.97,WSW,253,0.0,0.0,34,0.00,,,0.00,weatherlink.com 1.10,2017-04-26 02:49:00,
2017-04-26 06:04:00,75.2,45.0,29.96,North,359,0.0,0.0,34,0.00,,,0.00,weatherlink.com 1.10,2017-04-26 03:04:00,
2017-04-26 06:19:00,75.5,45.0,29.97,West,272,0.0,0.0,34,0.00,,,0.00,weatherlink.com 1.10,2017-04-26 03:19:00,
2017-04-26 06:34:00,75.5,44.0,29.97,West,277,0.0,0.0,33,0.00,,,0.00,weatherlink.com 1.10,2017-04-26 03:34:00,
2017-04-26 06:49:00,76.4,44.0,29.97,North,359,0.0,0.0,31,0.00,,,0.00,weatherlink.com 1.10,2017-04-26 03:49:00,
2017-04-26 07:04:00,77.5,41.0,29.98,WNW,298,0.0,0.0,27,0.00,,,0.00,weatherlink.com 1.10,2017-04-26 04:04:00,
2017-04-26 07:19:00,77.7,43.0,29.98,WNW,303,0.0,0.0,29,0.00,,,0.00,weatherlink.com 1.10,2017-04-26 04:19:00,
2017-04-26 07:34:00,78.3,44.0,29.98,West,273,0.0,0.0,30,0.00,,,0.00,weatherlink.com 1.10,2017-04-26 04:34:00,
2017-04-26 07:49:00,79.4,45.0,29.99,North,359,0.0,0.0,30,0.00,,,0.00,weatherlink.com 1.10,2017-04-26 04:49:00,
2017-04-26 08:04:00,79.9,44.0,29.98,North,359,0.0,0.0,28,0.00,,,0.00,weatherlink.com 1.10,2017-04-26 05:04:00,
2017-04-26 08:19:00,80.7,44.0,29.97,NW,305,0.0,0.0,27,0.00,,,0.00,weatherlink.com 1.10,2017-04-26 05:19:00,
2017-04-26 08:34:00,81.6,43.0,29.97,NNW,341,0.0,0.0,26,0.00,,,0.00,weatherlink.com 1.10,2017-04-26 05:34:00,
2017-04-26 08:49:00,81.8,43.0,29.97,West,273,0.0,0.0,25,0.00,,,0.00,weatherlink.com 1.10,2017-04-26 05:49:00,
2017-04-26 09:04:00,83.1,44.0,29.97,WNW,300,0.0,0.0,25,0.00,,,0.00,weatherlink.com 1.10,2017-04-26 06:04:00,
2017-04-26 09:19:00,84.0,41.0,29.96,NNW,335,0.0,0.0,22,0.00,,,0.00,weatherlink.com 1.10,2017-04-26 06:19:00,
2017-04-26 09:34:00,85.0,40.0,29.96,North,359,0.0,0.0,20,0.00,,,0.00,weatherlink.com 1.10,2017-04-26 06:34:00,
2017-04-26 09:49:00,85.7,45.0,29.96,North,359,0.0,0.0,24,0.00,,,0.00,weatherlink.com 1.10,2017-04-26 06:49:00,
2017-04-26 10:04:00,86.5,46.0,29.96,North,359,0.0,0.0,24,0.00,,,0.00,weatherlink.com 1.10,2017-04-26 07:04:00,
2017-04-26 10:19:00,86.7,41.0,29.96,NW,312,0.0,0.0,20,0.00,,,0.00,weatherlink.com 1.10,2017-04-26 07:19:00,
2017-04-26 10:34:00,87.0,43.0,29.94,North,8,0.0,0.0,21,0.00,,,0.00,weatherlink.com 1.10,2017-04-26 07:34:00,
2017-04-26 10:49:00,87.7,42.0,29.97,WSW,258,0.0,0.0,20,0.00,,,0.00,weatherlink.com 1.10,2017-04-26 07:49:00,
2017-04-26 11:04:00,87.8,43.0,29.95,NW,317,0.0,0.0,21,0.00,,,0.00,weatherlink.com 1.10,2017-04-26 08:04:00,
2017-04-26 11:19:00,88.7,39.0,29.95,NNW,331,0.0,0.0,17,0.00,,,0.00,weatherlink.com 1.10,2017-04-26 08:19:00,
2017-04-26 11:35:00,87.6,41.0,29.95,NNW,328,0.0,0.0,19,0.00,,,0.00,weatherlink.com 1.10,2017-04-26 08:35:00,
2017-04-26 11:49:00,85.2,51.0,29.95,North,359,0.0,0.0,31,0.01,,,0.01,weatherlink.com 1.10,2017-04-26 08:49:00,
2017-04-26 12:04:00,86.1,45.0,29.95,WNW,293,0.0,0.0,24,0.01,,,0.01,weatherlink.com 1.10,2017-04-26 09:04:00,
2017-04-26 12:19:00,88.0,47.0,29.95,NNW,332,0.0,0.0,24,0.01,,,0.01,weatherlink.com 1.10,2017-04-26 09:19:00,
2017-04-26 12:34:00,89.8,41.0,29.94,North,9,0.0,0.0,18,0.01,,,0.01,weatherlink.com 1.10,2017-04-26 09:34:00,
2017-04-26 12:49:00,90.4,43.0,29.93,NNE,24,0.0,0.0,19,0.00,,,0.01,weatherlink.com 1.10,2017-04-26 09:49:00,
2017-04-26 13:04:00,91.6,41.0,29.93,North,4,0.0,0.0,17,0.00,,,0.01,weatherlink.com 1.10,2017-04-26 10:04:00,
2017-04-26 13:19:00,92.6,39.0,29.92,NW,320,0.0,0.0,15,0.00,,,0.01,weatherlink.com 1.10,2017-04-26 10:19:00,
2017-04-26 13:34:00,92.7,37.0,29.92,NW,309,0.0,0.0,14,0.00,,,0.01,weatherlink.com 1.10,2017-04-26 10:34:00,
2017-04-26 13:49:00,92.9,39.0,29.92,NNE,25,0.0,0.0,15,0.00,,,0.01,weatherlink.com 1.10,2017-04-26 10:49:00,
2017-04-26 14:04:00,93.0,41.0,29.92,North,354,0.0,0.0,16,0.00,,,0.01,weatherlink.com 1.10,2017-04-26 11:04:00,
2017-04-26 14:19:00,93.1,35.0,29.91,NNE,13,0.0,0.0,13,0.00,,,0.01,weatherlink.com 1.10,2017-04-26 11:19:00,
2017-04-26 14:34:00,92.9,35.0,29.91,North,4,0.0,0.0,13,0.00,,,0.01,weatherlink.com 1.10,2017-04-26 11:34:00,
2017-04-26 14:49:00,92.0,36.0,29.90,NNE,32,0.0,0.0,14,0.00,,,0.01,weatherlink.com 1.10,2017-04-26 11:49:00,
2017-04-26 15:04:00,92.1,36.0,29.90,NNE,27,0.0,0.0,14,0.00,,,0.01,weatherlink.com 1.10,2017-04-26 12:04:00,
2017-04-26 15:19:00,92.3,38.0,29.90,NNE,31,0.0,0.0,15,0.00,,,0.01,weatherlink.com 1.10,2017-04-26 12:19:00,
2017-04-26 15:34:00,92.5,37.0,29.90,NNE,16,0.0,0.0,14,0.00,,,0.01,weatherlink.com 1.10,2017-04-26 12:34:00,
2017-04-26 15:49:00,92.8,37.0,29.89,NNE,12,0.0,0.0,14,0.00,,,0.01,weatherlink.com 1.10,2017-04-26 12:49:00,
2017-04-26 16:04:00,93.1,35.0,29.89,NNE,17,0.0,0.0,13,0.00,,,0.01,weatherlink.com 1.10,2017-04-26 13:04:00,
2017-04-26 16:19:00,93.0,35.0,29.88,NNE,17,0.0,0.0,13,0.00,,,0.01,weatherlink.com 1.10,2017-04-26 13:19:00,
2017-04-26 16:34:00,93.1,35.0,29.88,NNE,16,0.0,0.0,13,0.00,,,0.01,weatherlink.com 1.10,2017-04-26 13:34:00,
2017-04-26 16:50:00,93.2,39.0,29.88,NNE,17,0.0,0.0,15,0.00,,,0.01,weatherlink.com 1.10,2017-04-26 13:50:00,
2017-04-26 17:04:00,91.6,46.0,29.88,NNE,18,0.0,0.0,21,0.00,,,0.01,weatherlink.com 1.10,2017-04-26 14:04:00,
2017-04-26 17:19:00,90.5,44.0,29.88,NNE,17,0.0,0.0,20,0.00,,,0.01,weatherlink.com 1.10,2017-04-26 14:19:00,
2017-04-26 17:35:00,90.1,45.0,29.89,NNE,17,0.0,0.0,21,0.00,,,0.01,weatherlink.com 1.10,2017-04-26 14:35:00,
2017-04-26 17:49:00,89.7,39.0,29.89,NNE,17,0.0,0.0,17,0.00,,,0.01,weatherlink.com 1.10,2017-04-26 14:49:00,
2017-04-26 18:05:00,89.6,38.0,29.88,NNE,18,0.0,0.0,16,0.00,,,0.01,weatherlink.com 1.10,2017-04-26 15:05:00,
2017-04-26 18:19:00,89.5,38.0,29.88,NNE,17,0.0,0.0,16,0.00,,,0.01,weatherlink.com 1.10,2017-04-26 15:19:00,
2017-04-26 18:35:00,89.2,37.0,29.89,NNE,18,0.0,0.0,16,0.00,,,0.01,weatherlink.com 1.10,2017-04-26 15:35:00,